English version (google)  Retour à l'accueil Ecrire à l'auteur du site Runraid : Michel Jourdan


 Visitez La Boutique 



Les prochaines courses


Les derniers résultats

cliquez pour visualiser la page complète relatant la chronologie des éruptions du Piton de la Fournaise
éruptions Piton de la Fournaise


Ile de La Réunion

 Diagonale des Fous 

Ecrire au créateur du site : Michel Jourdan
Contact


2020-08-22 - ULTRA 01 99km

Pour consulter le palmarès d'un coureur, un clic sur son nom !

Vous avez des remarques, corrections, ... sur ces résultats , un clic sur --> pour me transmettre toute information concernant les classements


ULTRA 01 99km - 2020 : classement des 119 finishers
Place Nom Temps Cat. Club Sexe Clt/cat.
Place Nom Temps Cat. Club Sexe Clt/cat.
1 MICHAUD Kevin 10:16:13 SEM TEAM DHOUBLON / BROOKS M 1150
2 PECCATTE Florent 10:52:41 M0M CLUB ALPIN BESANcON M 1 M0M 1169
3 ALIX Adrien 11:34:21 SEM DIJON UC M 2 SEM 1072
4 MORDELET Nicolas 12:17:19 SEM M 3 SEM 1145
5 DRUOT Francois Henri 12:29:05 SEM M 4 SEM 1093
6 DITTRICH David 12:56:41 SEM AVOC M 5 SEM 1082
7 PRIMAUT Johan 13:21:49 M0M M 2 M0M 1094
8 SOBCZAK Loic 13:28:21 SEM M 6 SEM 1044
9 SCHUMACHER Nicolas 13:29:04 SEM OXYJEUNES (ReUNION) M 7 SEM 1123
10 BROYER Nicolas 13:33:17 M0M VIRIAT MARATHON M 3 M0M 1102
11 LEGOUGE Denis 13:37:12 M3M TEAM DLCOACHING M 1 M3M 1116
12 MOURCELY Matthieu 13:37:29 SEM ASPTT BESANCON M 8 SEM 1143
13 DOUSSAL Yves 13:45:23 M0M QUEVEN ATHLETISME M 4 M0M 1075
14 FEUTRIE Baptiste 13:51:54 SEM M 9 SEM 1130
15 FEUTRIE Louis 13:53:04 SEM M 10 SEM 1129
16 MOLY Anne Lyse 14:09:16 M2F ASPMR F 1ere F 1105
17 VITRY Christopher 14:09:16 SEM CA DE LA HAUTE MOSELLE M 11 SEM 1063
18 CLERC Fabien 14:27:33 SEM WGTN THE CREW M 12 SEM 1031
19 HANTON Jean Baptiste 14:29:06 M1M M 1 M1M 1058
20 CARLIER Stephane 14:34:27 M1M TEAM DU CAILLOU M 2 M1M 1165
21 VERKEST Antoine 14:37:12 M0M S/L AC VILLENEUVE D'ASCQ M 5 M0M 1081
22 CALVEZ Nicolas 14:42:04 SEM M 13 SEM 1154
23 BALLET Diana 14:42:53 SEF MAC SPORT TEAM RUNNING F 2 F 1059
24 BONHOMME Christophe 14:43:01 M1M M 3 M1M 1049
25 MATEO Bastien 14:44:33 SEM S/L ASA BELLEY M 14 SEM 1020
26 MAINIER Antoine 14:47:24 M0M A SIX FOURS M 6 M0M 1050
27 HUET Emmanuel 14:48:51 M1M SANGLIERS DU MARDI M 4 M1M 1168
28 RECEVEUR Gerald 14:51:52 M0M FREE RUN CUISEAUX M 7 M0M 1037
29 MAYET Matthieu 14:55:51 SEM M 15 SEM 1117
30 LE ROY Pascal 14:57:14 M3M IROISE TRIATHLON M 2 M3M 1052
31 CATTEAU Francois 14:57:47 M2M ASVEL TRIATHLON M 1 M2M 1131
32 BERTRAND Julien 14:59:39 M1M BIZIAT ENDURANCE M 5 M1M 1035
33 HOGBEN Emma 15:04:09 M0F TAILWIND NUTRITION FRANCE F 3 F 1068
34 MAINFROY Baptiste 15:12:49 M0M M 8 M0M 1077
35 DREBET Nicolas 15:18:24 M1M GRAND FOND BRESSAN M 6 M1M 1006
36 FEVRIER Vincent 15:20:53 M0M M 9 M0M 1156
37 ANDRE Michael 15:21:51 M2M ALL JURA TRAIL M 2 M2M 1060
38 COLIN Julien 15:26:57 SEM PORTET TRI M 16 SEM 1114
39 GUILLEMAUD Lionel 15:27:21 M2M M 3 M2M 1157
40 FRANCO Olivier 15:28:30 M1M M 7 M1M 1055
41 THUAIRE Benoit 15:31:03 M0M AUNIS LA ROCHELLE M 10 M0M 1110
42 ARNOUX Olivier 15:33:32 M1M CE RENAULT AUBEVOYE M 8 M1M 1109
43 CURE Olivier 15:35:08 M3M M 3 M3M 1118
44 LABROCHE Christophe 15:39:46 M2M JC EPERNAY CHAMPAGNE M 4 M2M 1139
45 LEROY Benjamin 15:42:59 M0M NOUVEAU ST AMAND ETUDIANT M 11 M0M 1103
46 CUVEILLIER Jean Francois 15:43:06 M4M M 1 M4M 1032
47 MOUTRAY Pierrick 15:43:59 M0M M 12 M0M 1069
48 MERRY Joachim 15:44:44 SEM RCMDF M 17 SEM 1070
49 SIDI David 15:47:14 M2M M 5 M2M 1002
50 GASPAROUX Jerome 15:54:21 M2M AC LACAUNE/EAU LA SALVETA M 6 M2M 1095
51 JULIEN Mathieu 15:54:46 SEM DIJON SINGLETRACK M 18 SEM 1065
52 GALLOIS Herve 15:59:25 M1M M 9 M1M 1096
53 OHL Sebastien 16:12:25 M2M EVIAN OFF COURSE M 7 M2M 1162
54 VERGEY Florent 16:17:14 M1M TEAM MONT JURA M 10 M1M 1171
55 LACROIX Christophe 16:18:43 M2M ESTRUN DE BON PIED M 8 M2M 1056
56 CHENET Alain 16:21:30 M2M M 9 M2M 1167
57 WARRAND Frederic 16:34:13 M2M JC EPERNAY CHAMPAGNE M 10 M2M 1138
58 MARIE Romain 16:37:08 M3M M 4 M3M 1106
59 MASSON Alix 16:39:23 ESM DOLE AC M 1 ESM 1159
60 TANCHEL Francis 16:39:59 SEM ASSOCIATION LUDREENNE TRA M 19 SEM 1084
61 DIEMUNSCH Anthony 16:40:00 M0M CA DE LA HAUTE MOSELLE M 13 M0M 1085
62 ROUMEGUERE Stephane 16:47:06 M0M M 14 M0M 1043
63 SION Gregory 16:55:28 M0M MCF M 15 M0M 1104
64 GUIRONNET Jerome 16:56:02 M0M M 16 M0M 1071
65 OLIVIER Bruno 16:57:06 M5M LISSES AC M 1 M5M 1161
66 BROCHE Sebastien 16:57:09 M2M M 11 M2M 1064
67 BOURGEAY Benjamin 17:09:39 M3M M 5 M3M 1033
68 LANDRODIE Antoine 17:10:36 SEM TEAM TRAIL CHIEN DE LA CA M 20 SEM 1151
69 BRASSEUR Antoine 17:10:39 SEM TEAM TRAIL CHIENS D'LA CA M 21 SEM 1041
70 RIOT Francois 17:11:21 M0M M 17 M0M 1140
71 MONROLIN Johann 17:12:26 M1M ALL JURA TRAIL M 11 M1M 1127
72 HOVINE Antonin 17:13:45 SEM DECATHLON TOURNAI M 22 SEM 1132
73 VAN TROYS Eric 17:18:16 M3M M 6 M3M 1007
74 MIXTE Benjamin 17:25:46 M1M LE TRAIL DES FLeCHETTES M 12 M1M 1101
75 LAPLANCHE Cyrille 17:28:14 M3M RUN FUN VITRY M 7 M3M 1141
76 MELOT Olivier 17:28:15 M3M RUNFUN VITRY M 8 M3M 1134
77 GARNERO Nicolas 17:34:22 SEM GRAND FOND BRESSAN M 23 SEM 1155
78 DERCOURT Eric 17:43:13 M4M M 2 M4M 1100
79 DUROUX Loic 18:10:42 M1M TRIATHLON M?CON CLUB M 13 M1M 1125
80 TROUX Camille 18:24:17 SEF F 4 F 1086
81 MITAILLE Anthony 18:39:13 M0M GRAND FOND BRESSAN M 18 M0M 1012
82 FOURNIER Christophe 18:39:14 M2M M 12 M2M 1122
83 BAROU Nicolas 18:39:14 M3M MULTIMARCHE 58 M 9 M3M 1092
84 SIMON Yvonnick 18:46:45 M3M S/L ETOILE DE CLISSON M 10 M3M 1090
85 CAMUS Denis 18:46:46 M3M AMA CUGAND M 11 M3M 1091
86 CHETTIH Tounsi 19:09:40 M2M RUN VALSERINE M 13 M2M 1133
87 MAZILLER Frederic 19:14:30 M2M M 14 M2M 1023
88 BUTLER Alain 19:16:56 M3M M 12 M3M 1054
89 GRONDIN Gilles 19:32:16 M3M M 13 M3M 1088
90 TERPEREAU Daniel 19:32:50 M4M JEFFB TRAIL M 3 M4M 1013
91 BARBERO Brune Lise 19:44:20 M0F CLET F 5 F 1080
92 LUGAND Julien 19:44:28 M0M GRAND FOND BRESSAN M 19 M0M 1017
93 PEREZ Philippe 19:50:21 M2M US OYONNAX M 15 M2M 1048
94 PHILIPPE Pierre Eric 19:55:14 M2M COURIR POUR DES POMMES M 16 M2M 1003
95 BAIZ Taoufik 20:00:14 SEM M 24 SEM 1083
96 RUBIO Stephane 20:04:00 SEM M 25 SEM 1137
97 NGUYEN KHAC Trung Dung 20:04:26 M2M LA FOULeE MUROISE M 17 M2M 1016
98 HERVIEUX Thomas 20:05:07 SEM JACQUELINE SA MeRE M 26 SEM 1121
99 THIBERT Nicolas 20:05:08 SEM JACQUELINE SA MeRE M 27 SEM 1120
100 MOTTE Mathieu 20:10:12 SEM RUN ARGONNE ATHLETIQUE CL M 28 SEM 1053
101 GUEDON Richard 20:28:06 M3M S/L GAZELEC ANGERS M 14 M3M 1005
102 RANDOT Sebastien 20:35:12 SEM M 29 SEM 1057
103 MARTINEZ Jennifer 21:15:43 SEF F 1074
104 COELHO Lucien 21:16:07 M1M M 14 M1M 1166
105 BERNARD GUELE Pierre 21:16:57 M0M M 20 M0M 1170
106 GOMES Herve 21:21:08 M5M JC EPERNAY CHAMPAGNE M 2 M5M 1149
107 LAURENT Lionel 21:25:06 M1M FOISSIAT BRESSE RUNNING M 15 M1M 1026
108 FILLION Loic 21:36:01 M0M M 21 M0M 1112
109 MIRODATOS Claude 21:56:15 M7M LA FOULeE MUROISE M 1 M7M 1152
110 KUROSAWA Yukimasa 22:02:45 M2M M 18 M2M 1135
111 THELLIER Lise 22:42:34 SEF F 1108
112 ANCELIN Denis 22:57:11 M6M UA SENS M 1 M6M 1124
113 TRUMEAU Frederique 23:05:26 M2F F 1039
114 VOISIN MALABRY Claudine 23:58:27 M3F F 1047
115 RIVA CLAIRON Stephanie 24h23:24 M3F F 1046
116 BERT Stephane 24h36:03 M3M M 15 M3M 1160
117 BOUSSARD Guillaume 25h08:24 M1M MONTVILLE RUNNING CLUB M 16 M1M 1051
118 FOUREL Fabrice 25h11:15 M2M M 19 M2M 1163
119 VERCHERE Didier 28h34:40 M4M GRAND FOND BRESSAN M 4 M4M 1004


ReferencementCe site est listé dans la catégorie Sport : Sports extrêmes Dictionnaire
| Accueil | La Réunion  Vue du ciel | Météo | Cyclones | Volcan | Cirques de Mafate , Cilaos , Salazie | Photos Randonnées | Randonnées Réunion: Randos Espiègle , Courses montagne | Diagonale des Fous |  Marathon des Sables | Voyages Les stats du site | Fonds écran | Plan du site | Blog de runraid | Galerie photos Sport Réunion |